Time;durP1;ratioP1;P1;durP2;ratioP2;P2;SDS_P1;SDS_P2;PMS_P1;PMS_P2;Temp;Humidity;BMP_temperature;BMP_pressure;BME280_temperature;BME280_humidity;BME280_pressure;Samples;Min_cycle;Max_cycle;Signal;HPM_P1;HPM_P2
2023/04/20 00:01:16;;;;;;;;;3.00;3.00;;;;;22.77;32.97;101698.53;5076949;28;46196;-76
2023/04/20 00:03:41;;;;;;;;;5.00;2.00;;;;;22.77;32.97;101698.53;5076666;28;45582;-76
2023/04/20 00:06:08;;;;;;;;;1.00;1.00;;;;;21.97;32.47;101571.59;5077208;28;45352;-76
2023/04/20 00:08:33;;;;;;;;;3.25;3.25;;;;;22.65;32.42;101679.44;5077031;28;45167;-76
2023/04/20 00:10:58;;;;;;;;;3.00;2.00;;;;;22.74;32.22;101696.22;5076152;28;46211;-74
2023/04/20 00:13:25;;;;;;;;;5.75;3.00;;;;;22.73;32.71;101681.28;5076654;28;45325;-76
2023/04/20 00:15:50;;;;;;;;;1.25;1.25;;;;;22.72;32.56;101680.44;5076783;28;45237;-76
2023/04/20 00:18:15;;;;;;;;;2.00;2.00;;;;;22.65;32.07;101668.81;5076815;28;45320;-75
2023/04/20 00:20:41;;;;;;;;;2.00;2.00;;;;;22.78;32.15;101688.75;5076581;28;46039;-75
2023/04/20 00:23:06;;;;;;;;;1.75;1.75;;;;;22.73;32.67;101674.16;5076586;28;45288;-76
2023/04/20 00:25:32;;;;;;;;;2.25;2.25;;;;;22.72;32.18;101669.00;5076379;28;45344;-75
2023/04/20 00:27:57;;;;;;;;;2.50;2.00;;;;;22.79;32.48;101679.81;5076567;28;45371;-76
2023/04/20 00:30:23;;;;;;;;;3.00;3.00;;;;;22.78;32.70;101673.66;5076372;28;46236;-75
2023/04/20 00:32:48;;;;;;;;;1.00;1.00;;;;;22.72;32.46;101661.88;5076236;28;45455;-75
2023/04/20 00:35:14;;;;;;;;;3.50;3.50;;;;;22.76;32.84;101667.69;5076461;28;45369;-76
2023/04/20 00:37:39;;;;;;;;;5.25;3.00;;;;;22.72;32.76;101653.09;5076242;27;45269;-72
2023/04/20 00:40:06;;;;;;;;;3.00;3.00;;;;;22.78;32.32;101664.88;5075961;28;46175;-75
2023/04/20 00:42:31;;;;;;;;;2.25;2.00;;;;;22.78;32.18;101659.56;5076187;28;45343;-75
2023/04/20 00:44:58;;;;;;;;;4.50;3.25;;;;;22.69;32.63;101634.84;5076302;28;45436;-75
2023/04/20 00:47:24;;;;;;;;;4.00;2.50;;;;;22.61;32.55;101623.22;5076306;28;45274;-75
2023/04/20 00:49:51;;;;;;;;;3.75;2.75;;;;;22.49;32.35;101603.31;5057960;28;48557;-75
2023/04/20 00:52:16;;;;;;;;;2.00;2.00;;;;;22.78;32.16;101639.19;5076099;28;45554;-75
2023/04/20 00:54:41;;;;;;;;;5.00;3.50;;;;;22.61;32.47;101615.25;5057487;28;45558;-74
2023/04/20 00:57:07;;;;;;;;;2.25;2.25;;;;;22.64;32.64;101616.75;5076380;28;45450;-76
2023/04/20 00:59:32;;;;;;;;;2.00;2.00;;;;;22.67;32.10;101618.25;5076040;28;47084;-76
2023/04/20 01:01:58;;;;;;;;;2.25;2.25;;;;;22.62;32.68;101601.00;5075896;28;45392;-75
2023/04/20 01:04:23;;;;;;;;;3.00;2.67;;;;;22.72;32.33;101615.94;5057072;28;45469;-76
2023/04/20 01:06:49;;;;;;;;;3.00;3.00;;;;;22.63;32.74;101604.50;5076141;28;45435;-76
2023/04/20 01:09:14;;;;;;;;;4.00;4.00;;;;;22.67;32.67;101610.28;5075776;28;45403;-75
2023/04/20 01:11:39;;;;;;;;;3.00;3.00;;;;;22.71;32.36;101617.81;5075786;28;45369;-76
2023/04/20 01:14:05;;;;;;;;;5.00;3.00;;;;;22.74;32.74;101614.00;5075923;28;45427;-75
2023/04/20 01:16:31;;;;;;;;;3.00;3.00;;;;;22.65;32.77;101599.84;5076084;28;45336;-76
2023/04/20 01:18:56;;;;;;;;;3.00;3.00;;;;;22.73;32.09;101612.31;5075774;28;46027;-75
2023/04/20 01:21:22;;;;;;;;;4.25;4.25;;;;;22.74;32.22;101611.34;5075713;28;45439;-76
2023/04/20 01:23:47;;;;;;;;;3.00;2.25;;;;;22.67;32.75;101597.03;5075451;28;45378;-75
2023/04/20 01:26:16;;;;;;;;;2.00;1.00;;;;;22.68;32.21;101593.38;5075607;28;45426;-75
2023/04/20 01:28:42;;;;;;;;;6.75;3.75;;;;;22.69;32.13;101597.72;5075432;28;46233;-75
2023/04/20 01:31:09;;;;;;;;;1.50;1.00;;;;;22.72;32.13;101602.69;5075618;28;45388;-75
2023/04/20 01:33:35;;;;;;;;;3.00;3.00;;;;;22.71;32.46;101598.41;5070741;27;45380;-75
2023/04/20 01:36:01;;;;;;;;;1.00;1.00;;;;;22.71;32.49;101593.94;5055357;28;45307;-76
2023/04/20 01:38:27;;;;;;;;;2.00;2.00;;;;;22.62;32.10;101577.16;5054666;28;46269;-75
2023/04/20 01:40:53;;;;;;;;;3.75;2.50;;;;;22.72;31.98;101590.25;5055377;28;45427;-75
2023/04/20 01:43:20;;;;;;;;;3.75;2.50;;;;;22.73;32.50;101585.78;5055460;28;45384;-76
2023/04/20 01:45:45;;;;;;;;;3.50;2.75;;;;;22.72;32.40;101586.78;5070927;28;45343;-75
2023/04/20 01:48:11;;;;;;;;;3.00;3.00;;;;;22.67;32.12;101578.47;5055022;28;46024;-75
2023/04/20 01:50:36;;;;;;;;;2.00;2.00;;;;;22.69;32.14;101563.22;5055336;28;45436;-76
2023/04/20 01:53:02;;;;;;;;;4.00;3.00;;;;;22.74;31.86;101576.84;5054931;28;45520;-75
2023/04/20 01:55:27;;;;;;;;;3.50;2.50;;;;;22.66;31.81;101558.25;5055237;28;45397;-75
2023/04/20 01:57:52;;;;;;;;;3.25;2.00;;;;;22.66;32.42;101572.34;5055193;28;46068;-75
2023/04/20 02:00:18;;;;;;;;;1.50;1.50;;;;;22.68;32.12;101565.03;5054978;28;45377;-75
2023/04/20 02:02:43;;;;;;;;;3.25;3.00;;;;;22.72;32.48;101573.50;5055212;28;45313;-76
2023/04/20 02:05:09;;;;;;;;;2.75;2.00;;;;;22.65;32.39;101561.88;5055184;28;45403;-75
2023/04/20 02:07:34;;;;;;;;;2.00;2.00;;;;;22.71;32.36;101571.88;5054578;28;46058;-75
2023/04/20 02:09:59;;;;;;;;;2.00;2.00;;;;;22.65;32.16;101560.06;5054878;28;45461;-75
2023/04/20 02:12:25;;;;;;;;;1.25;1.25;;;;;22.69;32.29;101581.78;5055124;28;45423;-76
2023/04/20 02:14:50;;;;;;;;;3.00;3.00;;;;;22.74;31.74;101576.84;5054985;28;45392;-75
2023/04/20 02:17:16;;;;;;;;;2.50;2.00;;;;;22.73;32.10;101581.31;5058438;28;45821;-76
2023/04/20 02:19:42;;;;;;;;;3.50;3.00;;;;;22.62;31.90;101569.19;5058243;28;45424;-75
2023/04/20 02:22:07;;;;;;;;;2.00;2.00;;;;;22.73;32.25;101583.97;5058084;28;45265;-76
2023/04/20 02:24:33;;;;;;;;;3.00;2.00;;;;;22.60;31.73;101565.88;5058179;28;45485;-75
2023/04/20 02:26:58;;;;;;;;;3.00;1.75;;;;;22.72;32.40;101582.31;5066343;28;47168;-75
2023/04/20 02:29:24;;;;;;;;;3.00;3.00;;;;;22.68;32.08;101577.47;5078463;28;45238;-76
2023/04/20 02:31:49;;;;;;;;;3.00;2.00;;;;;22.62;31.86;101576.31;5078558;28;45222;-76
2023/04/20 02:34:15;;;;;;;;;2.00;1.50;;;;;22.72;32.38;101592.06;5078505;28;45591;-76
2023/04/20 02:36:40;;;;;;;;;2.00;2.00;;;;;22.70;31.66;101586.94;5059628;28;46104;-76
2023/04/20 02:39:05;;;;;;;;;5.75;2.00;;;;;22.40;31.90;101544.97;5078203;28;45283;-76
2023/04/20 02:41:31;;;;;;;;;1.33;1.33;;;;;22.62;32.20;101574.50;5078441;28;45694;-76
2023/04/20 02:43:56;;;;;;;;;2.00;2.00;;;;;22.58;31.72;101564.38;5078350;28;45233;-76
2023/04/20 02:46:22;;;;;;;;;2.00;2.00;;;;;22.70;32.17;101589.59;5078046;28;48841;-76
2023/04/20 02:48:47;;;;;;;;;2.00;2.00;;;;;22.69;31.89;101579.13;5059878;28;45252;-75
2023/04/20 02:51:12;;;;;;;;;3.00;2.00;;;;;22.71;32.14;101590.44;5077944;28;45367;-75
2023/04/20 02:53:38;;;;;;;;;1.00;1.00;;;;;22.70;31.84;101583.47;5078091;28;45406;-76
2023/04/20 02:56:03;;;;;;;;;1.00;1.00;;;;;22.70;32.20;101586.94;5078131;28;45428;-75
2023/04/20 02:58:30;;;;;;;;;2.50;2.50;;;;;22.70;31.68;101580.81;5077924;28;45403;-75
2023/04/20 03:00:59;;;;;;;;;3.00;1.00;;;;;22.66;31.66;101582.13;5078081;28;45347;-76
2023/04/20 03:03:26;;;;;;;;;3.00;3.00;;;;;22.54;31.76;101557.75;5077862;28;45675;-75
2023/04/20 03:05:51;;;;;;;;;2.00;2.00;;;;;22.70;31.72;101586.13;5077235;28;46241;-75
2023/04/20 03:08:16;;;;;;;;;2.00;2.00;;;;;22.69;31.92;101590.56;5077646;28;45347;-76
2023/04/20 03:10:42;;;;;;;;;2.25;2.25;;;;;22.62;31.93;101579.78;5077965;28;45342;-75
2023/04/20 03:13:07;;;;;;;;;2.75;2.50;;;;;22.63;31.76;101583.28;5077527;28;50613;-75
2023/04/20 03:15:32;;;;;;;;;3.00;3.00;;;;;22.62;31.82;101579.78;5077624;28;46425;-75
2023/04/20 03:17:58;;;;;;;;;2.00;2.00;;;;;22.70;32.09;101591.41;5077506;28;45766;-75
2023/04/20 03:20:23;;;;;;;;;2.00;2.00;;;;;22.66;31.82;101582.97;5077548;28;45408;-76
2023/04/20 03:22:49;;;;;;;;;3.00;3.00;;;;;22.68;31.61;101596.03;5077445;28;45575;-75
2023/04/20 03:25:15;;;;;;;;;2.33;2.33;;;;;22.68;31.63;101591.56;5077674;28;45423;-76
2023/04/20 03:27:40;;;;;;;;;1.00;1.00;;;;;22.69;31.30;101587.91;5076308;28;45463;-75
2023/04/20 03:30:07;;;;;;;;;3.50;2.00;;;;;22.63;31.80;101583.28;5077440;28;45356;-76
2023/04/20 03:32:32;;;;;;;;;0.25;0.25;;;;;22.60;31.66;101575.66;5077426;28;45309;-76
2023/04/20 03:34:57;;;;;;;;;2.25;2.25;;;;;22.57;31.66;101570.69;5058473;28;47992;-75
2023/04/20 03:37:23;;;;;;;;;2.67;2.67;;;;;22.45;31.48;101546.31;5077107;28;45445;-76
2023/04/20 03:39:48;;;;;;;;;2.75;1.50;;;;;22.70;31.64;101588.78;5077529;28;45448;-76
2023/04/20 03:42:13;;;;;;;;;1.00;1.00;;;;;22.63;31.53;101572.69;5077266;28;45384;-76
2023/04/20 03:44:39;;;;;;;;;2.50;2.50;;;;;22.68;31.25;101588.91;5077272;28;45281;-75
2023/04/20 03:47:04;;;;;;;;;2.75;2.50;;;;;22.68;31.65;101596.03;5077209;28;45273;-75
2023/04/20 03:49:30;;;;;;;;;1.00;1.00;;;;;22.59;31.20;101576.63;5076967;28;45356;-76
2023/04/20 03:51:55;;;;;;;;;1.00;1.00;;;;;22.40;31.60;101549.47;5077256;28;45307;-76
2023/04/20 03:54:20;;;;;;;;;2.00;2.00;;;;;22.64;31.78;101579.63;5076872;28;46197;-76
2023/04/20 03:56:48;;;;;;;;;2.00;2.00;;;;;22.65;31.42;101591.06;5077074;28;45318;-76
2023/04/20 03:59:13;;;;;;;;;3.00;2.75;;;;;22.61;31.73;101577.31;5077220;28;45395;-75
2023/04/20 04:01:39;;;;;;;;;1.00;1.00;;;;;22.66;31.43;101587.44;5076723;28;45574;-75
2023/04/20 04:04:04;;;;;;;;;2.25;1.25;;;;;22.43;31.48;101553.63;5076694;28;45391;-76
2023/04/20 04:06:30;;;;;;;;;3.00;3.00;;;;;22.55;31.53;101580.63;5076940;28;45381;-76
2023/04/20 04:08:56;;;;;;;;;2.00;2.00;;;;;22.53;31.53;101572.84;5077010;28;45363;-75
2023/04/20 04:11:21;;;;;;;;;2.00;2.00;;;;;22.60;31.65;101591.56;5076781;28;45419;-75
2023/04/20 04:13:47;;;;;;;;;3.00;1.50;;;;;22.66;31.68;101596.22;5076371;28;46569;-75
2023/04/20 04:16:12;;;;;;;;;2.50;1.00;;;;;22.63;31.55;101597.38;5076846;28;45391;-75
2023/04/20 04:18:42;;;;;;;;;1.00;0.33;;;;;22.65;30.94;101605.16;5076628;28;45372;-75
2023/04/20 04:21:09;;;;;;;;;3.00;3.00;;;;;22.58;31.56;101598.88;5076965;28;45548;-76
2023/04/20 04:23:34;;;;;;;;;1.00;1.00;;;;;22.61;31.09;101615.25;5076320;28;46190;-75
2023/04/20 04:26:00;;;;;;;;;2.00;2.00;;;;;22.48;31.00;101593.72;5058053;28;45967;-75
2023/04/20 04:28:26;;;;;;;;;2.00;2.00;;;;;22.57;31.26;101621.91;5076741;28;45368;-74
2023/04/20 04:30:53;;;;;;;;;1.33;1.33;;;;;22.63;31.15;101625.72;5076554;28;45273;-75
2023/04/20 04:33:19;;;;;;;;;2.33;2.00;;;;;22.62;31.31;101618.75;5075893;28;47438;-75
2023/04/20 04:35:44;;;;;;;;;2.00;2.00;;;;;22.63;31.00;101596.53;5076379;28;45269;-75
2023/04/20 04:38:12;;;;;;;;;3.00;2.00;;;;;22.44;31.32;101577.31;5076168;28;45300;-76
2023/04/20 04:40:38;;;;;;;;;1.25;1.25;;;;;22.57;31.45;101603.34;5076560;28;45462;-76
2023/04/20 04:43:04;;;;;;;;;4.00;2.67;;;;;22.63;30.79;101623.91;5076195;28;47203;-76
2023/04/20 04:45:29;;;;;;;;;3.00;2.00;;;;;22.61;31.36;101609.16;5076226;28;45417;-75
2023/04/20 04:47:55;;;;;;;;;1.00;1.00;;;;;22.55;31.26;101604.50;5076175;28;45545;-75
2023/04/20 04:50:21;;;;;;;;;2.00;2.00;;;;;22.55;30.88;101596.53;5076328;28;45462;-76
2023/04/20 04:52:46;;;;;;;;;2.67;2.33;;;;;22.63;30.64;101613.28;5076022;28;45355;-75
2023/04/20 04:55:12;;;;;;;;;2.50;2.50;;;;;22.60;30.77;101610.13;5076223;28;45376;-76
2023/04/20 04:57:37;;;;;;;;;2.00;2.00;;;;;22.59;31.03;101604.00;5076316;28;45696;-76
2023/04/20 05:00:08;;;;;;;;;1.67;1.67;;;;;22.46;31.18;101599.19;5076344;28;45769;-75
2023/04/20 05:02:34;;;;;;;;;3.33;3.00;;;;;22.61;30.56;101622.41;5075534;28;47036;-76
2023/04/20 05:05:00;;;;;;;;;2.50;2.50;;;;;22.57;31.21;101608.63;5075731;28;45419;-76
2023/04/20 05:07:25;;;;;;;;;2.00;2.00;;;;;22.60;31.05;101621.56;5076060;28;45407;-76
2023/04/20 05:09:50;;;;;;;;;3.67;3.00;;;;;22.50;31.18;101605.81;5076008;28;45442;-75
2023/04/20 05:12:16;;;;;;;;;1.25;1.25;;;;;22.50;31.02;101613.78;5075733;28;47092;-76
2023/04/20 05:14:41;;;;;;;;;1.25;1.25;;;;;22.63;30.87;101623.91;5075838;28;45331;-75
2023/04/20 05:17:06;;;;;;;;;2.00;2.00;;;;;22.57;31.15;101624.56;5057435;28;45384;-76
2023/04/20 05:19:32;;;;;;;;;3.00;3.00;;;;;22.56;30.66;101617.56;5075866;28;45427;-72
2023/04/20 05:21:57;;;;;;;;;1.00;1.00;;;;;22.57;30.95;101627.19;5075732;28;46122;-76
2023/04/20 05:24:23;;;;;;;;;2.33;1.67;;;;;22.64;30.51;101635.31;5057576;28;45439;-76
2023/04/20 05:26:48;;;;;;;;;2.33;2.00;;;;;22.62;30.62;101638.16;5075774;28;45835;-76
2023/04/20 05:29:15;;;;;;;;;1.75;1.50;;;;;22.60;30.58;101634.84;5057690;28;45423;-76
2023/04/20 05:31:40;;;;;;;;;1.00;1.00;;;;;22.60;31.09;101660.53;5075061;28;46332;-75
2023/04/20 05:34:05;;;;;;;;;3.75;2.00;;;;;22.58;30.38;101642.13;5075501;28;45375;-74
2023/04/20 05:36:32;;;;;;;;;2.75;2.50;;;;;22.61;30.76;101640.97;5075787;28;45368;-76
2023/04/20 05:38:57;;;;;;;;;3.00;1.75;;;;;22.48;30.75;101620.25;5075622;27;45376;-76
2023/04/20 05:41:26;;;;;;;;;2.00;2.00;;;;;22.61;30.48;101651.59;5075435;28;45343;-76
2023/04/20 05:43:55;;;;;;;;;2.00;2.00;;;;;22.62;30.48;101653.22;5075514;28;45409;-76
2023/04/20 05:46:21;;;;;;;;;3.00;3.00;;;;;22.62;30.64;101661.19;5075519;28;45463;-75
2023/04/20 05:48:47;;;;;;;;;2.50;2.50;;;;;22.61;30.85;101655.03;5075456;28;45395;-75
2023/04/20 05:51:13;;;;;;;;;1.75;1.00;;;;;22.62;31.00;101658.53;5077415;28;45329;-75
2023/04/20 05:53:38;;;;;;;;;3.00;2.25;;;;;22.62;30.92;101655.88;5078850;28;45376;-76
2023/04/20 05:56:05;;;;;;;;;3.00;2.00;;;;;22.62;30.45;101662.00;5079230;28;45366;-75
2023/04/20 05:58:32;;;;;;;;;2.00;2.00;;;;;22.60;31.03;101653.41;5078895;28;45307;-75
2023/04/20 06:00:57;;;;;;;;;1.75;1.25;;;;;22.64;30.55;101664.50;5078616;28;46410;-75
2023/04/20 06:03:22;;;;;;;;;2.25;2.25;;;;;22.48;30.87;101654.72;5078753;28;45346;-75
2023/04/20 06:05:48;;;;;;;;;2.00;2.00;;;;;22.65;30.47;101667.97;5078904;28;45437;-75
2023/04/20 06:08:13;;;;;;;;;1.50;1.50;;;;;22.65;30.58;101668.81;5078942;28;45375;-76
2023/04/20 06:10:38;;;;;;;;;3.25;2.00;;;;;22.65;30.27;101663.50;5078641;28;46274;-76
2023/04/20 06:13:04;;;;;;;;;4.25;4.00;;;;;22.66;30.62;101662.53;5078154;28;45218;-76
2023/04/20 06:15:30;;;;;;;;;3.75;2.75;;;;;22.62;30.74;101654.06;5078786;28;45420;-75
2023/04/20 06:17:55;;;;;;;;;2.67;2.67;;;;;22.54;30.45;101654.03;5060645;28;45282;-75
2023/04/20 06:20:20;;;;;;;;;3.00;3.00;;;;;22.68;30.61;101657.88;5078347;28;45355;-76
2023/04/20 06:22:47;;;;;;;;;1.75;1.75;;;;;22.65;30.46;101666.16;5078477;28;45440;-75
2023/04/20 06:25:12;;;;;;;;;3.25;2.00;;;;;22.63;30.14;101660.19;5078578;28;45259;-76
2023/04/20 06:27:38;;;;;;;;;3.75;3.00;;;;;22.68;30.39;101660.53;5078030;28;45636;-75
2023/04/20 06:30:04;;;;;;;;;2.00;2.00;;;;;22.67;30.43;101650.91;5078346;28;46943;-76
2023/04/20 06:32:30;;;;;;;;;1.00;1.00;;;;;22.29;30.33;101590.41;5078281;28;45507;-75
2023/04/20 06:34:55;;;;;;;;;3.50;2.00;;;;;22.69;30.11;101661.38;5078376;28;45636;-75
2023/04/20 06:37:20;;;;;;;;;3.00;3.00;;;;;22.70;29.97;101665.69;5078310;27;45428;-75
2023/04/20 06:39:46;;;;;;;;;1.75;1.75;;;;;22.72;30.17;101675.16;5078219;28;45450;-75
2023/04/20 06:42:12;;;;;;;;;2.50;1.75;;;;;22.62;29.88;101653.22;5077944;28;45377;-75
2023/04/20 06:44:38;;;;;;;;;3.00;3.00;;;;;22.69;29.83;101666.69;5078434;28;45422;-76
2023/04/20 06:47:03;;;;;;;;;1.67;1.33;;;;;22.72;29.79;101675.16;5078251;28;45355;-75
2023/04/20 06:49:28;;;;;;;;;3.00;3.00;;;;;22.73;29.90;101675.97;5077942;28;46071;-76
2023/04/20 06:51:54;;;;;;;;;1.50;1.50;;;;;22.70;30.25;101669.19;5078144;28;45364;-75
2023/04/20 06:54:19;;;;;;;;;2.00;2.00;;;;;22.51;29.86;101655.19;5078143;28;45423;-75
2023/04/20 06:56:45;;;;;;;;;2.50;2.00;;;;;22.73;29.72;101682.13;5077927;28;45378;-76
2023/04/20 06:59:10;;;;;;;;;2.25;2.25;;;;;22.63;29.70;101673.47;5077946;28;46062;-76
2023/04/20 07:01:35;;;;;;;;;3.25;2.50;;;;;22.73;30.33;101687.44;5076776;28;45439;-76
2023/04/20 07:04:01;;;;;;;;;5.00;3.33;;;;;22.62;29.67;101671.78;5077838;28;45313;-76
2023/04/20 07:06:27;;;;;;;;;3.50;2.25;;;;;22.45;29.82;101658.53;5077967;28;45424;-76
2023/04/20 07:08:52;;;;;;;;;3.33;2.00;;;;;22.69;29.80;101679.94;5077650;28;46175;-75
2023/04/20 07:11:18;;;;;;;;;0.00;0.00;;;;;22.44;29.79;101653.38;5058931;28;53008;-76
2023/04/20 07:13:43;;;;;;;;;3.25;3.25;;;;;22.62;30.06;101675.28;5077823;28;45483;-75
2023/04/20 07:16:09;;;;;;;;;2.50;2.50;;;;;22.73;30.27;101682.13;5077859;28;45341;-75
2023/04/20 07:18:35;;;;;;;;;5.25;3.00;;;;;22.63;29.73;101684.06;5077528;28;45352;-75
2023/04/20 07:21:00;;;;;;;;;1.33;1.33;;;;;22.63;30.26;101676.94;5077649;28;45342;-75
2023/04/20 07:23:26;;;;;;;;;3.33;3.33;;;;;22.45;29.67;101647.91;5077616;28;45321;-76
2023/04/20 07:25:51;;;;;;;;;5.00;3.00;;;;;22.48;29.79;101657.38;5077320;28;45354;-76
2023/04/20 07:28:16;;;;;;;;;3.75;3.25;;;;;22.69;30.03;101711.78;5077383;28;45916;-75
2023/04/20 07:30:41;;;;;;;;;1.75;1.75;;;;;22.72;30.26;101696.38;5077608;28;45352;-75
2023/04/20 07:33:08;;;;;;;;;4.00;3.50;;;;;22.77;30.23;101687.91;5077456;28;45581;-75
2023/04/20 07:35:33;;;;;;;;;2.50;2.50;;;;;22.71;30.23;101677.97;5077674;28;45396;-75
2023/04/20 07:37:58;;;;;;;;;1.75;1.75;;;;;22.74;29.77;101696.22;5058782;28;47249;-75
2023/04/20 07:40:24;;;;;;;;;3.00;3.00;;;;;22.77;29.91;101703.84;5077031;28;45428;-75
2023/04/20 07:42:50;;;;;;;;;3.00;3.00;;;;;22.77;30.19;101698.53;5077350;28;45292;-75
2023/04/20 07:45:15;;;;;;;;;4.00;3.00;;;;;22.78;29.51;101709.97;5077259;28;45307;-75
2023/04/20 07:47:43;;;;;;;;;2.25;2.25;;;;;22.74;29.53;101699.69;5077031;28;46811;-75
2023/04/20 07:50:09;;;;;;;;;3.00;3.00;;;;;22.63;29.54;101682.25;5077032;28;45326;-75
2023/04/20 07:52:35;;;;;;;;;3.00;2.00;;;;;22.74;29.79;101693.56;5077137;28;45340;-75
2023/04/20 07:55:00;;;;;;;;;3.00;3.00;;;;;22.70;29.94;101685.09;5076617;28;45362;-75
2023/04/20 07:57:27;;;;;;;;;2.00;2.00;;;;;22.76;30.12;101688.09;5077109;28;47092;-75
2023/04/20 07:59:53;;;;;;;;;4.50;4.50;;;;;22.68;29.68;101678.28;5076973;28;45362;-75
2023/04/20 08:02:18;;;;;;;;;2.00;2.00;;;;;22.80;29.74;101695.56;5076923;28;45319;-76
2023/04/20 08:04:43;;;;;;;;;4.00;2.25;;;;;22.72;30.13;101676.97;5077192;28;45382;-75
2023/04/20 08:07:10;;;;;;;;;2.00;2.00;;;;;22.71;29.93;101670.84;5077098;28;45958;-76
2023/04/20 08:09:35;;;;;;;;;5.00;3.75;;;;;22.70;29.99;101666.53;5076502;28;45539;-76
2023/04/20 08:12:01;;;;;;;;;4.00;3.00;;;;;22.81;29.67;101683.97;5076731;28;45462;-76
2023/04/20 08:14:26;;;;;;;;;1.00;1.00;;;;;22.83;30.17;101683.78;5076523;28;45454;-75
2023/04/20 08:16:52;;;;;;;;;2.00;1.00;;;;;22.83;30.02;101700.53;5076739;28;46232;-75
2023/04/20 08:19:17;;;;;;;;;3.25;2.50;;;;;22.81;30.12;101680.47;5076853;28;45293;-75
2023/04/20 08:21:42;;;;;;;;;2.00;2.00;;;;;22.85;30.15;101674.66;5076454;28;46337;-75
2023/04/20 08:24:08;;;;;;;;;3.50;3.00;;;;;22.58;30.10;101636.00;5076480;28;45589;-75
2023/04/20 08:26:34;;;;;;;;;3.50;3.00;;;;;22.84;29.74;101669.53;5076465;28;46023;-76
2023/04/20 08:29:01;;;;;;;;;2.25;2.25;;;;;22.80;30.10;101663.72;5076583;28;45422;-75
2023/04/20 08:31:27;;;;;;;;;2.25;2.25;;;;;22.81;30.10;101660.06;5076526;28;45314;-75
2023/04/20 08:33:52;;;;;;;;;3.00;3.00;;;;;22.78;30.19;101648.94;5076458;28;45300;-76
2023/04/20 08:36:17;;;;;;;;;4.00;3.00;;;;;22.79;29.69;101645.31;5076367;28;45364;-75
2023/04/20 08:38:43;;;;;;;;;3.50;2.00;;;;;22.87;30.26;101665.72;5076048;28;45380;-75
2023/04/20 08:41:12;;;;;;;;;3.25;3.00;;;;;22.84;30.06;101662.41;5076477;28;45375;-75
2023/04/20 08:43:37;;;;;;;;;1.25;1.25;;;;;22.86;29.60;101656.91;5076521;28;45266;-76
2023/04/20 08:46:03;;;;;;;;;1.75;1.75;;;;;22.74;30.17;101638.66;5075977;28;45227;-75
2023/04/20 08:48:35;;;;;;;;;3.67;2.67;;;;;22.62;29.80;101616.94;5076327;28;45325;-75
2023/04/20 08:51:02;;;;;;;;;3.00;3.00;;;;;22.89;29.64;101643.31;5076156;28;45424;-76
2023/04/20 08:53:28;;;;;;;;;2.25;2.00;;;;;22.80;29.87;101631.03;5075908;28;45459;-75
2023/04/20 08:55:55;;;;;;;;;5.50;4.00;;;;;22.90;30.15;101641.50;5075980;28;45379;-75
2023/04/20 08:58:23;;;;;;;;;4.00;3.00;;;;;22.88;29.88;101633.69;5076188;28;45442;-75
2023/04/20 09:00:49;;;;;;;;;3.00;3.00;;;;;22.91;29.92;101636.03;5076115;28;45244;-75
2023/04/20 09:03:14;;;;;;;;;1.75;1.75;;;;;22.93;30.09;101630.53;5076088;28;45473;-76
2023/04/20 09:05:40;;;;;;;;;4.00;2.50;;;;;22.94;29.59;101626.91;5057707;28;48098;-75
2023/04/20 09:08:05;;;;;;;;;4.00;4.00;;;;;22.82;29.70;101623.78;5075814;28;45407;-75
2023/04/20 09:10:42;;;;;;;;;3.75;3.00;;;;;22.82;30.06;101613.97;5076126;28;45355;-76
2023/04/20 09:13:09;;;;;;;;;2.50;2.00;;;;;22.96;29.88;101654.09;5076028;28;45261;-75
2023/04/20 09:15:34;;;;;;;;;4.00;3.00;;;;;22.82;29.86;101624.56;5075496;28;45339;-75
2023/04/20 09:18:10;;;;;;;;;3.00;3.00;;;;;22.98;29.84;101638.81;5075723;28;45319;-76
2023/04/20 09:20:35;;;;;;;;;3.75;2.00;;;;;22.98;30.26;101640.66;5076010;28;45327;-75
2023/04/20 09:23:14;;;;;;;;;3.25;2.00;;;;;22.96;29.97;101620.44;5075251;28;45451;-75
2023/04/20 09:25:42;;;;;;;;;4.25;3.00;;;;;22.95;30.28;101607.34;5076942;28;46299;-74
2023/04/20 09:28:08;;;;;;;;;3.00;2.50;;;;;22.99;30.19;101624.56;5079122;28;45340;-76
2023/04/20 09:30:45;;;;;;;;;3.25;3.25;;;;;22.99;29.92;101623.75;5079524;28;45317;-75
2023/04/20 09:33:13;;;;;;;;;2.75;2.75;;;;;22.89;30.00;101602.69;5079173;28;45570;-75
2023/04/20 09:35:39;;;;;;;;;3.50;3.50;;;;;23.00;29.82;101615.63;5079039;28;46191;-75
2023/04/20 09:38:06;;;;;;;;;2.00;1.67;;;;;22.93;30.12;101596.88;5078481;28;45411;-76
2023/04/20 09:40:32;;;;;;;;;1.25;1.25;;;;;22.91;30.14;101588.25;5079246;28;45212;-75
2023/04/20 09:43:06;;;;;;;;;2.00;1.50;;;;;22.84;29.69;101592.59;5079221;28;45336;-75
2023/04/20 09:45:32;;;;;;;;;2.00;2.00;;;;;23.01;29.91;101616.44;5078873;28;46635;-75
2023/04/20 09:47:58;;;;;;;;;3.00;3.00;;;;;22.95;30.01;101591.41;5079144;28;45507;-75
2023/04/20 09:50:24;;;;;;;;;3.75;2.50;;;;;22.93;30.13;101588.06;5078680;28;45365;-74
2023/04/20 09:52:51;;;;;;;;;2.00;2.00;;;;;23.02;29.66;101602.19;5079008;28;45361;-75
2023/04/20 09:55:17;;;;;;;;;2.67;2.67;;;;;23.01;29.97;101592.53;5078818;28;45438;-76
2023/04/20 09:57:43;;;;;;;;;2.25;2.25;;;;;23.01;30.26;101601.34;5060672;28;45498;-76
2023/04/20 10:00:11;;;;;;;;;2.50;2.25;;;;;22.98;29.75;101593.72;5078953;28;45301;-76
2023/04/20 10:02:37;;;;;;;;;3.00;3.00;;;;;23.02;30.21;101575.63;5078795;28;45471;-75
2023/04/20 10:05:03;;;;;;;;;2.33;2.33;;;;;22.80;29.91;101554.94;5078303;28;45946;-75
2023/04/20 10:07:30;;;;;;;;;3.00;3.00;;;;;22.97;29.67;101584.13;5078640;28;45446;-75
2023/04/20 10:10:15;;;;;;;;;3.25;3.00;;;;;23.01;30.09;101585.41;5078936;28;45402;-76
2023/04/20 10:12:53;;;;;;;;;3.00;3.00;;;;;23.02;29.56;101581.78;5078634;28;45467;-75
2023/04/20 10:15:23;;;;;;;;;3.00;3.00;;;;;23.01;30.18;101585.41;5078306;28;46427;-75
2023/04/20 10:17:48;;;;;;;;;4.00;4.00;;;;;23.01;29.50;101579.28;5078691;28;45343;-75
2023/04/20 10:20:26;;;;;;;;;7.00;4.50;;;;;22.97;29.78;101557.56;5078220;28;45304;-75
2023/04/20 10:22:52;;;;;;;;;3.00;3.00;;;;;23.02;29.45;101557.06;5078583;28;45312;-75
2023/04/20 10:25:23;;;;;;;;;2.67;2.67;;;;;23.01;29.76;101558.03;5078378;28;45394;-75
2023/04/20 10:28:03;;;;;;;;;4.00;2.00;;;;;22.70;29.82;101506.53;5078175;28;45427;-75
2023/04/20 10:30:29;;;;;;;;;3.00;3.00;;;;;23.01;29.49;101566.84;5078516;28;45370;-75
2023/04/20 10:33:06;;;;;;;;;5.50;4.00;;;;;22.98;29.97;101566.38;5078284;28;45231;-75
2023/04/20 10:35:48;;;;;;;;;3.00;3.00;;;;;22.99;29.40;101566.19;5077631;28;47274;-76
2023/04/20 10:38:14;;;;;;;;;2.00;2.00;;;;;22.95;29.70;101564.88;5078032;28;45517;-75
2023/04/20 10:40:39;;;;;;;;;1.00;1.00;;;;;23.01;29.56;101582.75;5078262;28;45544;-76
2023/04/20 10:43:17;;;;;;;;;2.00;2.00;;;;;22.98;29.59;101569.81;5078421;28;45574;-77
2023/04/20 10:45:42;;;;;;;;;4.00;3.00;;;;;23.00;30.03;101565.19;5078080;28;47513;-75
2023/04/20 10:48:08;;;;;;;;;5.00;4.00;;;;;22.89;30.00;101557.59;5078021;28;45312;-75
2023/04/20 10:50:34;;;;;;;;;3.00;3.00;;;;;22.99;29.89;101566.19;5077525;28;45397;-73
2023/04/20 10:53:00;;;;;;;;;2.00;2.00;;;;;23.00;29.42;101564.38;5078176;28;45345;-75
2023/04/20 10:55:25;;;;;;;;;4.75;4.50;;;;;23.00;30.01;101567.03;5059700;28;47007;-76
2023/04/20 10:57:52;;;;;;;;;3.00;3.00;;;;;22.97;29.52;101552.25;5078102;28;45290;-76
2023/04/20 11:00:22;;;;;;;;;1.50;1.50;;;;;22.73;29.54;101504.38;5078180;28;45336;-76
2023/04/20 11:02:49;;;;;;;;;2.00;2.00;;;;;23.00;29.84;101541.31;5077835;28;45611;-75
2023/04/20 11:05:16;;;;;;;;;4.00;3.00;;;;;22.98;29.51;101545.13;5077256;28;46942;-75
2023/04/20 11:07:55;;;;;;;;;3.00;3.00;;;;;23.02;29.94;101541.13;5077634;28;45360;-76
2023/04/20 11:10:23;;;;;;;;;3.50;2.75;;;;;23.00;29.72;101530.69;5077720;28;45293;-75
2023/04/20 11:12:49;;;;;;;;;2.25;2.25;;;;;23.01;29.96;101537.66;5077637;28;45415;-76
2023/04/20 11:15:15;;;;;;;;;4.25;2.50;;;;;23.02;29.95;101517.25;5077419;28;47049;-73
2023/04/20 11:17:41;;;;;;;;;3.00;3.00;;;;;23.02;30.06;101538.47;5077221;28;45320;-76
2023/04/20 11:20:12;;;;;;;;;4.00;3.00;;;;;23.01;29.50;101515.59;5077781;28;45395;-75